createdAt,value
2022-11-13T12:24:34.666Z,3.30
2022-11-13T12:25:34.558Z,4.20
2022-11-13T12:26:34.544Z,4.30
2022-11-13T12:27:34.514Z,2.80
2022-11-13T12:28:38.402Z,3.50
2022-11-13T12:29:34.476Z,3.90
2022-11-13T12:30:34.467Z,3.20
2022-11-13T12:31:34.437Z,3.60
2022-11-13T12:32:34.417Z,3.00
2022-11-13T12:33:34.403Z,2.30
2022-11-13T12:34:34.392Z,2.00
2022-11-13T12:35:34.375Z,2.30
2022-11-13T12:36:34.345Z,1.80
2022-11-13T12:37:34.330Z,2.00
2022-11-13T12:38:34.305Z,2.60
2022-11-13T12:39:34.300Z,2.70
2022-11-13T12:40:34.369Z,2.50
2022-11-13T12:41:34.254Z,2.50
2022-11-13T12:42:34.236Z,2.10
2022-11-13T12:43:34.228Z,1.70
2022-11-13T12:44:34.203Z,1.90
2022-11-13T12:45:34.198Z,2.10
2022-11-13T12:46:34.173Z,1.90
2022-11-13T12:47:34.157Z,2.00
2022-11-13T12:48:34.144Z,2.30
2022-11-13T12:49:34.128Z,1.90
2022-11-13T12:50:34.122Z,2.20
2022-11-13T12:51:34.110Z,2.10
2022-11-13T12:52:34.076Z,2.30
2022-11-13T12:53:34.058Z,1.70
2022-11-13T12:54:34.041Z,2.10
2022-11-13T12:55:34.028Z,1.90
2022-11-13T12:56:34.091Z,1.70
2022-11-13T12:57:33.988Z,1.80
2022-11-13T12:58:33.976Z,2.30
2022-11-13T12:59:33.953Z,1.70
2022-11-13T13:00:33.956Z,1.80
2022-11-13T13:01:33.987Z,1.80
2022-11-13T13:02:33.917Z,1.60
2022-11-13T13:03:33.901Z,2.00
2022-11-13T13:04:33.875Z,1.80
2022-11-13T13:05:33.885Z,2.10
2022-11-13T13:06:33.843Z,1.80
2022-11-13T13:07:33.830Z,2.10
2022-11-13T13:08:33.813Z,1.80
2022-11-13T13:09:33.799Z,2.50
2022-11-13T13:10:33.809Z,1.60
2022-11-13T13:11:33.778Z,1.70
2022-11-13T13:12:33.827Z,1.80
2022-11-13T13:13:33.753Z,2.10
2022-11-13T13:14:33.731Z,2.10
2022-11-13T13:15:33.710Z,1.90
2022-11-13T13:16:33.714Z,1.40
2022-11-13T13:17:33.677Z,1.70
2022-11-13T13:18:33.685Z,1.70
2022-11-13T13:19:33.664Z,1.60
2022-11-13T13:20:33.631Z,1.60
2022-11-13T13:21:33.630Z,1.60
2022-11-13T13:22:33.606Z,1.60
2022-11-13T13:23:33.595Z,2.10
2022-11-13T13:24:33.577Z,1.70
2022-11-13T13:25:33.566Z,2.00
2022-11-13T13:26:33.564Z,1.60
2022-11-13T13:27:33.565Z,1.50
2022-11-13T13:28:33.587Z,1.70
2022-11-13T13:29:33.512Z,1.60
2022-11-13T13:30:33.489Z,1.80
2022-11-13T13:31:33.485Z,2.10
2022-11-13T13:32:33.468Z,1.60
2022-11-13T13:33:33.442Z,1.60
2022-11-13T13:34:35.257Z,1.60
2022-11-13T13:35:33.428Z,2.50
2022-11-13T13:36:33.422Z,1.50
2022-11-13T13:37:33.392Z,1.80
2022-11-13T13:38:33.377Z,1.50
